Station Historical Data
 
Daily Summary for February 19, 2018 Units:  English    Metric   Both
« Previous Day
Next Day »
Daily Weekly Monthly Yearly Custom
  Current: High: Low: Average:
Temperature: 43.0 °F 43.0 °F 33.0 °F 37.1 °F
Dew Point: 40.2 °F 40.2 °F 30.7 °F 35.3 °F
Humidity: 90 % 96 % 89 % 93 %
Wind Speed: 0.0 mph 3.0 mph 0.0 mph 0.1 mph
Wind Gust: 5.0 mph 5.0 mph - -
Wind:Calm - - South
Pressure: 30.47 in 30.55 in 30.47 in -
Precipitation: 0.02 in      
Historical Graphs
 
 
Tabular Data for February 19, 2018
Time Temperature Dew Point Pressure Wind Wind Speed Wind Gust Humidity Rainfall Rate (Hourly)
00:04 34.5 °F 31.5 °F 30.53 in Calm     89 % 0.00 in
00:09 34.2 °F 31.3 °F 30.53 in Calm     89 % 0.00 in
00:14 33.9 °F 31.0 °F 30.53 in Calm     89 % 0.00 in
00:19 33.8 °F 31.1 °F 30.54 in Calm     90 % 0.00 in
00:24 33.7 °F 31.0 °F 30.54 in Calm     90 % 0.00 in
00:29 33.6 °F 30.9 °F 30.54 in Calm     90 % 0.00 in
00:34 33.4 °F 30.7 °F 30.54 in Calm     90 % 0.00 in
00:39 33.4 °F 31.0 °F 30.54 in Calm     91 % 0.00 in
00:44 33.3 °F 30.9 °F 30.54 in Calm     91 % 0.00 in
00:49 33.2 °F 30.8 °F 30.54 in Calm     91 % 0.00 in
00:54 33.2 °F 30.8 °F 30.54 in Calm     91 % 0.00 in
00:59 33.2 °F 31.1 °F 30.53 in Calm   1.0 mph 92 % 0.00 in
01:04 33.3 °F 31.2 °F 30.53 in Calm   1.0 mph 92 % 0.00 in
01:09 33.3 °F 31.2 °F 30.53 in Calm   1.0 mph 92 % 0.00 in
01:14 33.2 °F 31.1 °F 30.53 in Calm   1.0 mph 92 % 0.00 in
01:19 33.2 °F 31.1 °F 30.53 in Calm     92 % 0.00 in
01:24 33.0 °F 30.9 °F 30.53 in Calm     92 % 0.00 in
01:29 33.1 °F 31.0 °F 30.53 in Calm     92 % 0.00 in
01:34 33.2 °F 31.3 °F 30.54 in Calm     93 % 0.00 in
01:39 33.2 °F 31.3 °F 30.53 in Calm     93 % 0.00 in
01:44 33.2 °F 31.3 °F 30.54 in Calm     93 % 0.00 in
01:49 33.2 °F 31.3 °F 30.53 in Calm     93 % 0.00 in
01:54 33.4 °F 31.5 °F 30.53 in Calm     93 % 0.00 in
01:59 33.5 °F 31.9 °F 30.53 in Calm     94 % 0.00 in
02:04 33.6 °F 32.0 °F 30.53 in Calm     94 % 0.00 in
02:09 33.5 °F 31.9 °F 30.53 in Calm     94 % 0.00 in
02:14 33.5 °F 31.6 °F 30.54 in Calm     93 % 0.00 in
02:19 33.5 °F 31.6 °F 30.53 in Calm     93 % 0.00 in
02:24 33.7 °F 32.1 °F 30.53 in Calm   1.0 mph 94 % 0.00 in
02:29 34.1 °F 32.5 °F 30.53 in SW 2.0 mph 2.0 mph 94 % 0.00 in
02:34 34.6 °F 33.3 °F 30.52 in SW 1.0 mph 2.0 mph 95 % 0.00 in
02:39 35.3 °F 34.0 °F 30.52 in Calm   2.0 mph 95 % 0.00 in
02:44 35.6 °F 34.3 °F 30.52 in Calm   2.0 mph 95 % 0.00 in
02:49 35.7 °F 34.4 °F 30.52 in Calm   2.0 mph 95 % 0.00 in
02:54 35.9 °F 34.6 °F 30.52 in Calm   1.0 mph 95 % 0.00 in
02:59 36.1 °F 34.8 °F 30.52 in Calm   1.0 mph 95 % 0.00 in
03:04 36.1 °F 34.5 °F 30.52 in Calm   1.0 mph 94 % 0.00 in
03:09 36.1 °F 34.5 °F 30.52 in Calm   1.0 mph 94 % 0.00 in
03:14 36.0 °F 34.4 °F 30.52 in Calm   1.0 mph 94 % 0.00 in
03:19 36.0 °F 34.4 °F 30.52 in Calm   1.0 mph 94 % 0.00 in
03:24 35.9 °F 34.3 °F 30.52 in Calm     94 % 0.00 in
03:29 35.9 °F 34.3 °F 30.52 in Calm     94 % 0.00 in
03:34 35.9 °F 34.3 °F 30.52 in Calm     94 % 0.00 in
03:39 35.9 °F 34.3 °F 30.52 in Calm     94 % 0.00 in
03:44 35.9 °F 34.3 °F 30.52 in Calm     94 % 0.00 in
03:49 35.9 °F 34.3 °F 30.52 in Calm     94 % 0.00 in
03:55 35.9 °F 34.3 °F 30.52 in Calm     94 % 0.00 in
04:00 36.0 °F 34.4 °F 30.52 in Calm     94 % 0.00 in
04:05 36.1 °F 34.5 °F 30.52 in Calm     94 % 0.01 in
04:10 36.3 °F 34.7 °F 30.52 in Calm     94 % 0.01 in
04:15 36.3 °F 34.7 °F 30.52 in Calm   1.0 mph 94 % 0.01 in
04:20 36.4 °F 34.8 °F 30.52 in Calm   1.0 mph 94 % 0.01 in
04:25 36.4 °F 34.8 °F 30.53 in Calm   1.0 mph 94 % 0.01 in
04:30 36.4 °F 34.8 °F 30.53 in Calm   1.0 mph 94 % 0.01 in
04:35 36.4 °F 34.8 °F 30.52 in Calm   1.0 mph 94 % 0.01 in
04:40 36.4 °F 34.8 °F 30.52 in Calm   1.0 mph 94 % 0.01 in
04:45 36.4 °F 34.8 °F 30.52 in Calm   1.0 mph 94 % 0.01 in
04:50 36.3 °F 34.7 °F 30.52 in Calm     94 % 0.01 in
04:55 36.2 °F 34.6 °F 30.52 in Calm     94 % 0.01 in
05:00 36.1 °F 34.5 °F 30.52 in Calm     94 % 0.01 in
05:05 36.1 °F 34.5 °F 30.52 in Calm     94 % 0.00 in
05:10 36.2 °F 34.6 °F 30.53 in Calm     94 % 0.00 in
05:15 36.1 °F 34.5 °F 30.52 in Calm     94 % 0.00 in
05:20 36.0 °F 34.4 °F 30.53 in Calm     94 % 0.00 in
05:25 35.9 °F 34.3 °F 30.53 in Calm     94 % 0.00 in
05:30 35.9 °F 34.3 °F 30.53 in Calm     94 % 0.00 in
05:35 35.7 °F 34.1 °F 30.52 in Calm     94 % 0.00 in
05:40 35.7 °F 34.1 °F 30.52 in Calm     94 % 0.00 in
05:45 35.7 °F 34.1 °F 30.52 in Calm     94 % 0.00 in
05:50 35.7 °F 34.1 °F 30.52 in Calm     94 % 0.00 in
05:55 35.7 °F 34.1 °F 30.52 in Calm     94 % 0.00 in
06:00 35.7 °F 34.1 °F 30.52 in Calm     94 % 0.00 in
06:05 35.7 °F 34.1 °F 30.52 in Calm     94 % 0.00 in
06:10 35.6 °F 34.0 °F 30.53 in Calm     94 % 0.00 in
06:15 35.6 °F 34.0 °F 30.53 in Calm     94 % 0.00 in
06:20 35.5 °F 33.9 °F 30.53 in Calm     94 % 0.00 in
06:25 35.5 °F 33.9 °F 30.53 in Calm     94 % 0.00 in
06:30 35.4 °F 33.8 °F 30.53 in Calm     94 % 0.00 in
06:35 35.3 °F 33.7 °F 30.53 in Calm     94 % 0.00 in
06:40 35.3 °F 33.7 °F 30.52 in Calm     94 % 0.00 in
06:45 35.5 °F 34.2 °F 30.52 in Calm     95 % 0.00 in
06:50 35.7 °F 34.4 °F 30.51 in Calm     95 % 0.00 in
06:55 35.8 °F 34.5 °F 30.50 in SSW 1.0 mph 1.0 mph 95 % 0.00 in
07:00 35.9 °F 34.6 °F 30.50 in Calm   1.0 mph 95 % 0.00 in
07:05 36.1 °F 34.8 °F 30.50 in Calm   1.0 mph 95 % 0.00 in
07:10 36.2 °F 34.9 °F 30.50 in Calm   1.0 mph 95 % 0.00 in
07:15 36.3 °F 35.0 °F 30.50 in Calm   1.0 mph 95 % 0.00 in
07:20 36.5 °F 35.2 °F 30.51 in Calm   1.0 mph 95 % 0.00 in
07:25 36.6 °F 35.3 °F 30.52 in Calm   2.0 mph 95 % 0.00 in
07:30 36.8 °F 35.5 °F 30.53 in Calm   2.0 mph 95 % 0.00 in
07:35 36.8 °F 35.5 °F 30.53 in Calm   2.0 mph 95 % 0.00 in
07:40 36.8 °F 35.5 °F 30.54 in Calm   2.0 mph 95 % 0.01 in
07:45 36.9 °F 35.6 °F 30.55 in Calm   1.0 mph 95 % 0.01 in
07:50 36.9 °F 35.6 °F 30.54 in Calm   1.0 mph 95 % 0.01 in
07:55 37.0 °F 35.7 °F 30.54 in Calm   1.0 mph 95 % 0.01 in
08:00 37.0 °F 35.7 °F 30.54 in Calm   1.0 mph 95 % 0.01 in
08:05 37.0 °F 35.7 °F 30.54 in Calm   1.0 mph 95 % 0.01 in
08:10 37.1 °F 35.8 °F 30.53 in Calm   1.0 mph 95 % 0.01 in
08:15 37.2 °F 35.9 °F 30.53 in Calm     95 % 0.01 in
08:20 37.4 °F 36.1 °F 30.52 in Calm     95 % 0.01 in
08:25 37.7 °F 36.6 °F 30.52 in Calm     96 % 0.01 in
08:30 37.9 °F 36.8 °F 30.51 in Calm     96 % 0.01 in
08:35 38.1 °F 37.0 °F 30.51 in Calm     96 % 0.01 in
08:40 38.3 °F 37.2 °F 30.51 in Calm     96 % 0.00 in
08:45 38.4 °F 37.3 °F 30.51 in Calm     96 % 0.00 in
08:47 38.4 °F 37.3 °F 30.51 in Calm     96 % 0.00 in
08:52 38.6 °F 37.2 °F 30.51 in Calm     95 % 0.00 in
08:57 38.8 °F 37.4 °F 30.52 in Calm     95 % 0.00 in
09:02 38.9 °F 37.5 °F 30.52 in Calm     95 % 0.00 in
09:07 39.0 °F 37.6 °F 30.52 in Calm     95 % 0.00 in
09:12 39.1 °F 37.7 °F 30.52 in Calm   1.0 mph 95 % 0.00 in
09:17 39.3 °F 37.9 °F 30.52 in Calm   1.0 mph 95 % 0.00 in
09:22 39.4 °F 38.0 °F 30.52 in Calm   1.0 mph 95 % 0.00 in
09:27 39.5 °F 38.1 °F 30.52 in Calm   2.0 mph 95 % 0.00 in
09:32 39.6 °F 38.2 °F 30.52 in Calm   2.0 mph 95 % 0.00 in
09:37 39.7 °F 38.3 °F 30.52 in Calm   2.0 mph 95 % 0.00 in
09:42 39.8 °F 38.4 °F 30.52 in Calm   2.0 mph 95 % 0.00 in
09:47 39.9 °F 38.3 °F 30.51 in Calm   2.0 mph 94 % 0.00 in
09:52 40.0 °F 38.4 °F 30.51 in Calm   2.0 mph 94 % 0.00 in
09:57 40.2 °F 38.6 °F 30.52 in Calm   1.0 mph 94 % 0.00 in
10:02 40.3 °F 38.7 °F 30.51 in SSW 1.0 mph 1.0 mph 94 % 0.00 in
10:07 40.4 °F 38.8 °F 30.52 in Calm   2.0 mph 94 % 0.00 in
10:12 40.5 °F 38.9 °F 30.52 in Calm   3.0 mph 94 % 0.00 in
10:17 40.6 °F 39.0 °F 30.52 in SSW 2.0 mph 3.0 mph 94 % 0.00 in
10:22 40.6 °F 38.7 °F 30.52 in Calm   3.0 mph 93 % 0.00 in
10:27 40.8 °F 38.9 °F 30.51 in Calm   3.0 mph 93 % 0.00 in
10:32 40.9 °F 39.0 °F 30.51 in Calm   3.0 mph 93 % 0.00 in
10:37 41.0 °F 39.1 °F 30.51 in Calm   3.0 mph 93 % 0.00 in
10:42 41.2 °F 39.3 °F 30.51 in Calm   3.0 mph 93 % 0.00 in
10:47 41.3 °F 39.4 °F 30.51 in Calm   3.0 mph 93 % 0.00 in
10:52 41.3 °F 39.1 °F 30.51 in Calm   4.0 mph 92 % 0.00 in
10:57 41.5 °F 39.3 °F 30.51 in Calm   4.0 mph 92 % 0.00 in
11:02 41.5 °F 39.3 °F 30.51 in South 1.0 mph 4.0 mph 92 % 0.00 in
11:07 41.6 °F 39.4 °F 30.51 in Calm   4.0 mph 92 % 0.00 in
11:12 41.6 °F 39.4 °F 30.51 in Calm   4.0 mph 92 % 0.00 in
11:17 41.6 °F 39.1 °F 30.51 in Calm   4.0 mph 91 % 0.00 in
11:22 41.7 °F 39.2 °F 30.51 in Calm   4.0 mph 91 % 0.00 in
11:27 41.8 °F 39.3 °F 30.51 in Calm   3.0 mph 91 % 0.00 in
11:32 41.9 °F 39.4 °F 30.51 in Calm   2.0 mph 91 % 0.00 in
11:37 42.0 °F 39.5 °F 30.50 in Calm   2.0 mph 91 % 0.00 in
11:42 42.1 °F 39.6 °F 30.50 in Calm   3.0 mph 91 % 0.00 in
11:47 42.3 °F 39.8 °F 30.50 in Calm   3.0 mph 91 % 0.00 in
11:52 42.3 °F 39.8 °F 30.49 in SSE 3.0 mph 3.0 mph 91 % 0.00 in
11:57 42.4 °F 39.6 °F 30.49 in Calm   4.0 mph 90 % 0.00 in
12:02 42.5 °F 39.7 °F 30.49 in Calm   4.0 mph 90 % 0.00 in
12:07 42.5 °F 39.7 °F 30.48 in Calm   4.0 mph 90 % 0.00 in
12:12 42.6 °F 39.8 °F 30.48 in SE 1.0 mph 3.0 mph 90 % 0.00 in
12:17 42.7 °F 39.9 °F 30.48 in South 2.0 mph 3.0 mph 90 % 0.00 in
12:22 42.8 °F 40.0 °F 30.47 in Calm   5.0 mph 90 % 0.00 in
12:27 43.0 °F 40.2 °F 30.47 in Calm   5.0 mph 90 % 0.00 in
MarylandWx.com
Compliments of Weather Underground - 5.75 mb